createdAt,value
2022-10-05T00:00:12.148Z,3.65
2022-10-05T00:02:38.435Z,3.47
2022-10-05T00:05:10.929Z,2.13
2022-10-05T00:07:37.239Z,2.15
2022-10-05T00:10:10.372Z,2.50
2022-10-05T00:12:36.710Z,1.30
2022-10-05T00:15:09.649Z,1.52
2022-10-05T00:17:35.951Z,3.45
2022-10-05T00:20:11.745Z,3.45
2022-10-05T00:22:38.016Z,2.25
2022-10-05T00:25:11.400Z,2.05
2022-10-05T00:27:38.875Z,2.97
2022-10-05T00:30:13.122Z,2.55
2022-10-05T00:32:39.634Z,2.22
2022-10-05T00:35:06.225Z,1.33
2022-10-05T00:37:32.516Z,1.23
2022-10-05T00:39:58.812Z,1.33
2022-10-05T00:42:43.591Z,1.02
2022-10-05T00:45:15.314Z,1.02
2022-10-05T00:48:00.214Z,1.25
2022-10-05T00:50:26.533Z,0.88
2022-10-05T00:52:57.882Z,0.80
2022-10-05T00:55:31.474Z,1.00
2022-10-05T00:58:12.781Z,2.05
2022-10-05T01:00:50.565Z,1.47
2022-10-05T01:03:32.232Z,3.00
2022-10-05T01:05:58.548Z,2.88
2022-10-05T01:08:43.257Z,3.42
2022-10-05T01:11:13.738Z,2.42
2022-10-05T01:13:40.087Z,2.42
2022-10-05T01:16:10.682Z,2.10
2022-10-05T01:18:43.054Z,2.13
2022-10-05T01:21:22.942Z,2.03
2022-10-05T01:23:55.410Z,2.85
2022-10-05T01:26:32.920Z,3.28
2022-10-05T01:29:15.558Z,3.28
2022-10-05T01:31:57.203Z,2.83
2022-10-05T01:34:32.514Z,4.32
2022-10-05T01:37:04.907Z,3.00
2022-10-05T01:39:36.282Z,3.45
2022-10-05T01:42:02.540Z,3.33
2022-10-05T01:44:37.193Z,4.85
2022-10-05T01:47:12.754Z,2.80
2022-10-05T01:49:39.068Z,3.60
2022-10-05T01:52:08.514Z,4.45
2022-10-05T01:54:53.213Z,4.95
2022-10-05T01:57:30.025Z,4.38
2022-10-05T02:00:11.680Z,4.97
2022-10-05T02:02:39.808Z,3.67
2022-10-05T02:05:23.625Z,5.03
2022-10-05T02:07:59.749Z,3.90
2022-10-05T02:10:28.875Z,1.23
2022-10-05T02:13:01.373Z,1.75
2022-10-05T02:15:32.497Z,1.52
2022-10-05T02:18:10.260Z,1.40
2022-10-05T02:20:37.370Z,0.73
2022-10-05T02:23:04.945Z,0.68
2022-10-05T02:25:33.229Z,0.98
2022-10-05T02:28:04.193Z,0.90
2022-10-05T02:30:31.614Z,0.82
2022-10-05T02:33:10.275Z,0.77
2022-10-05T02:35:36.558Z,0.65
2022-10-05T02:38:05.592Z,0.70
2022-10-05T02:40:42.232Z,0.63
2022-10-05T02:43:11.760Z,0.85
2022-10-05T02:45:38.071Z,0.52
2022-10-05T02:48:13.466Z,0.55
2022-10-05T02:50:42.891Z,0.98
2022-10-05T02:53:15.465Z,0.73
2022-10-05T02:55:51.590Z,0.68
2022-10-05T02:58:28.507Z,0.60
2022-10-05T03:01:05.332Z,0.40
2022-10-05T03:03:36.489Z,0.63
2022-10-05T03:06:03.916Z,0.40
2022-10-05T03:08:48.817Z,0.30
2022-10-05T03:11:23.361Z,0.30
2022-10-05T03:13:49.662Z,0.28
2022-10-05T03:16:21.890Z,0.47
2022-10-05T03:19:17.684Z,0.30
2022-10-05T03:21:50.586Z,0.30
2022-10-05T03:24:31.955Z,0.30
2022-10-05T03:27:04.523Z,0.40
2022-10-05T03:29:49.733Z,0.60
2022-10-05T03:32:18.833Z,0.50
2022-10-05T03:34:48.642Z,0.35
2022-10-05T03:37:28.146Z,1.55
2022-10-05T03:39:54.592Z,2.53
2022-10-05T03:42:20.854Z,1.10
2022-10-05T03:44:53.115Z,1.52
2022-10-05T03:47:34.457Z,5.30
2022-10-05T03:50:19.665Z,4.77
2022-10-05T03:52:51.349Z,3.28
2022-10-05T03:55:23.676Z,2.70
2022-10-05T03:57:51.794Z,2.58
2022-10-05T04:00:19.688Z,1.92
2022-10-05T04:03:10.132Z,1.20
2022-10-05T04:05:56.827Z,1.00
2022-10-05T04:08:29.138Z,1.20
2022-10-05T04:10:56.992Z,1.33
2022-10-05T04:13:41.512Z,1.92
2022-10-05T04:16:33.796Z,1.35
2022-10-05T04:19:03.122Z,0.75
2022-10-05T04:21:45.046Z,1.27
2022-10-05T04:24:14.695Z,1.80
2022-10-05T04:26:58.743Z,1.65
2022-10-05T04:29:31.009Z,1.00
2022-10-05T04:32:00.430Z,1.35
2022-10-05T04:34:45.676Z,1.30
2022-10-05T04:37:19.000Z,1.60
2022-10-05T04:39:45.276Z,2.95
2022-10-05T04:42:14.629Z,4.82
2022-10-05T04:44:43.958Z,4.55
2022-10-05T04:47:10.277Z,4.88
2022-10-05T04:49:36.678Z,6.53
2022-10-05T04:52:12.912Z,6.78
2022-10-05T04:54:51.406Z,5.97
2022-10-05T04:57:27.798Z,5.07
2022-10-05T05:00:04.567Z,2.90
2022-10-05T05:02:40.052Z,5.35
2022-10-05T05:05:26.474Z,6.13
2022-10-05T05:08:01.906Z,4.35
2022-10-05T05:10:47.021Z,6.03
2022-10-05T05:13:25.644Z,6.85
2022-10-05T05:16:15.792Z,8.52
2022-10-05T05:19:07.089Z,8.40
2022-10-05T05:21:57.168Z,7.95
2022-10-05T05:24:27.893Z,4.97
2022-10-05T05:27:03.913Z,6.07
2022-10-05T05:29:48.806Z,5.35
2022-10-05T05:32:28.301Z,3.10
2022-10-05T05:34:57.747Z,6.10
2022-10-05T05:37:40.720Z,5.40
2022-10-05T05:40:09.859Z,2.92
2022-10-05T05:42:42.221Z,4.18
2022-10-05T05:45:28.783Z,4.45
2022-10-05T05:47:58.862Z,4.30
2022-10-05T05:50:32.196Z,7.03
2022-10-05T05:53:06.330Z,6.20
2022-10-05T05:55:35.931Z,5.40
2022-10-05T05:58:14.370Z,3.97
2022-10-05T06:00:55.855Z,4.25
2022-10-05T06:03:37.168Z,2.30
2022-10-05T06:06:09.807Z,2.13
2022-10-05T06:08:39.894Z,1.38
2022-10-05T06:11:24.877Z,1.85
2022-10-05T06:13:51.766Z,1.42
2022-10-05T06:16:21.103Z,1.55
2022-10-05T06:18:58.743Z,2.13
2022-10-05T06:21:28.723Z,1.50
2022-10-05T06:24:18.518Z,0.80
2022-10-05T06:27:03.680Z,1.45
2022-10-05T06:29:50.330Z,3.72
2022-10-05T06:32:28.802Z,5.43
2022-10-05T06:35:06.044Z,4.95
2022-10-05T06:37:35.089Z,6.22
2022-10-05T06:40:01.565Z,6.07
2022-10-05T06:42:34.952Z,5.30
2022-10-05T06:45:06.344Z,6.03
2022-10-05T06:47:51.319Z,5.70
2022-10-05T06:50:17.597Z,6.22
2022-10-05T06:53:01.701Z,6.30
2022-10-05T06:55:27.964Z,5.03
2022-10-05T06:58:13.183Z,6.22
2022-10-05T07:00:51.582Z,6.90
2022-10-05T07:03:37.001Z,7.03
2022-10-05T07:06:11.093Z,4.90
2022-10-05T07:08:43.408Z,4.63
2022-10-05T07:11:21.809Z,5.78
2022-10-05T07:14:03.643Z,5.63
2022-10-05T07:16:30.009Z,5.20
2022-10-05T07:19:02.079Z,8.35
2022-10-05T07:24:02.510Z,8.13
2022-10-05T07:26:39.606Z,7.75
2022-10-05T07:29:24.455Z,8.30
2022-10-05T07:31:58.751Z,7.22
2022-10-05T07:34:25.008Z,5.53
2022-10-05T07:37:14.488Z,7.57
2022-10-05T07:40:01.588Z,6.15
2022-10-05T07:42:51.764Z,7.82
2022-10-05T07:45:37.961Z,6.45
2022-10-05T07:48:13.048Z,6.55
2022-10-05T07:50:59.903Z,6.68
2022-10-05T07:53:35.583Z,4.72
2022-10-05T07:56:09.973Z,5.07
2022-10-05T07:58:48.295Z,5.07
2022-10-05T08:01:20.790Z,5.05
2022-10-05T08:03:59.499Z,4.50
2022-10-05T08:06:32.041Z,4.13
2022-10-05T08:09:17.295Z,4.07
2022-10-05T08:12:02.825Z,4.28
2022-10-05T08:14:35.293Z,2.70
2022-10-05T08:17:04.093Z,2.90
2022-10-05T08:19:35.566Z,2.72
2022-10-05T08:22:05.357Z,3.13
2022-10-05T08:24:37.506Z,2.72
2022-10-05T08:27:06.684Z,3.70
2022-10-05T08:29:35.877Z,2.20
2022-10-05T08:32:04.152Z,2.88
2022-10-05T08:34:34.773Z,2.47
2022-10-05T08:37:16.756Z,1.77
2022-10-05T08:40:01.756Z,2.38
2022-10-05T08:42:40.050Z,2.78
2022-10-05T08:45:16.364Z,3.28
2022-10-05T08:47:54.972Z,3.67
2022-10-05T08:50:21.492Z,2.78
2022-10-05T08:53:03.020Z,2.67
2022-10-05T08:55:33.261Z,1.50
2022-10-05T08:58:02.151Z,1.60
2022-10-05T09:00:47.106Z,2.20
2022-10-05T09:03:33.526Z,2.05
2022-10-05T09:06:21.686Z,2.33
2022-10-05T09:08:54.404Z,1.80
2022-10-05T09:11:26.744Z,2.17
2022-10-05T09:13:53.022Z,1.83
2022-10-05T09:16:25.202Z,2.72
2022-10-05T09:19:03.483Z,3.15
2022-10-05T09:21:50.276Z,4.18
2022-10-05T09:24:19.557Z,3.15
2022-10-05T09:27:04.586Z,3.92
2022-10-05T09:29:49.879Z,2.65
2022-10-05T09:32:30.246Z,2.30
2022-10-05T09:35:09.048Z,2.15
2022-10-05T09:37:54.216Z,4.00
2022-10-05T09:40:44.634Z,3.22
2022-10-05T09:43:20.015Z,2.00
2022-10-05T09:45:49.932Z,2.22
2022-10-05T09:48:35.304Z,2.70
2022-10-05T09:51:01.617Z,2.70
2022-10-05T09:53:27.909Z,2.70
2022-10-05T09:56:05.260Z,2.50
2022-10-05T09:58:33.224Z,2.20
2022-10-05T10:01:34.300Z,2.60
2022-10-05T10:04:09.969Z,1.87
2022-10-05T10:06:42.376Z,2.38
2022-10-05T10:09:17.818Z,1.77
2022-10-05T10:11:53.606Z,2.35
2022-10-05T10:14:26.577Z,2.95
2022-10-05T10:17:08.106Z,2.22
2022-10-05T10:19:49.672Z,3.03
2022-10-05T10:22:34.506Z,2.95
2022-10-05T10:25:20.012Z,3.17
2022-10-05T10:28:13.219Z,2.53
2022-10-05T10:30:58.552Z,3.97
2022-10-05T10:33:31.081Z,3.13
2022-10-05T10:36:09.378Z,4.30
2022-10-05T10:38:40.205Z,2.20
2022-10-05T10:41:06.488Z,3.35
2022-10-05T10:43:32.765Z,3.92
2022-10-05T10:46:11.936Z,3.10
2022-10-05T10:48:55.827Z,3.65
2022-10-05T10:51:41.179Z,3.50
2022-10-05T10:54:19.945Z,2.90
2022-10-05T10:56:48.814Z,2.38
2022-10-05T10:59:25.542Z,2.70
2022-10-05T11:02:00.223Z,4.78
2022-10-05T11:04:41.198Z,3.50
2022-10-05T11:07:16.888Z,3.50
2022-10-05T11:09:43.325Z,3.63
2022-10-05T11:12:21.962Z,3.35
2022-10-05T11:15:01.741Z,3.10
2022-10-05T11:17:51.389Z,3.22
2022-10-05T11:20:17.686Z,4.55
2022-10-05T11:23:16.615Z,3.33
2022-10-05T11:25:44.340Z,7.47
2022-10-05T11:28:14.169Z,4.65
2022-10-05T11:30:56.900Z,3.72
2022-10-05T11:33:26.268Z,4.28
2022-10-05T11:35:58.919Z,5.45
2022-10-05T11:38:28.334Z,5.82
2022-10-05T11:41:13.417Z,3.83
2022-10-05T11:44:00.283Z,3.42
2022-10-05T11:46:42.199Z,5.22
2022-10-05T11:49:27.172Z,4.45
2022-10-05T11:51:57.714Z,2.13
2022-10-05T11:54:24.151Z,2.30
2022-10-05T11:57:00.537Z,1.88
2022-10-05T11:59:34.662Z,1.50
2022-10-05T12:02:07.150Z,1.77
2022-10-05T12:04:33.433Z,0.85
2022-10-05T12:07:08.721Z,1.38
2022-10-05T12:09:37.973Z,1.17
2022-10-05T12:12:27.002Z,1.65
2022-10-05T12:14:53.279Z,1.33
2022-10-05T12:17:24.017Z,1.35
2022-10-05T12:19:57.732Z,1.43
2022-10-05T12:22:39.994Z,1.38
2022-10-05T12:25:19.169Z,2.20
2022-10-05T12:27:47.337Z,1.63
2022-10-05T12:30:13.880Z,1.45
2022-10-05T12:32:44.089Z,2.35
2022-10-05T12:35:43.574Z,1.60
2022-10-05T12:38:11.760Z,1.25
2022-10-05T12:40:41.229Z,2.08
2022-10-05T12:43:16.408Z,1.85
2022-10-05T12:46:01.638Z,2.10
2022-10-05T12:48:43.898Z,1.60
2022-10-05T12:51:28.806Z,1.75
2022-10-05T12:54:04.011Z,1.60
2022-10-05T12:56:42.601Z,1.30
2022-10-05T12:59:24.084Z,1.42
2022-10-05T13:02:02.156Z,0.93
2022-10-05T13:04:28.805Z,1.85
2022-10-05T13:07:04.327Z,2.67
2022-10-05T13:09:40.644Z,2.65
2022-10-05T13:12:20.125Z,1.27
2022-10-05T13:14:53.742Z,1.50
2022-10-05T13:17:20.000Z,1.52
2022-10-05T13:19:47.525Z,2.38
2022-10-05T13:22:32.779Z,1.67
2022-10-05T13:25:05.326Z,3.00
2022-10-05T13:27:35.416Z,1.30
2022-10-05T13:30:02.150Z,1.08
2022-10-05T13:32:40.825Z,2.28
2022-10-05T13:35:11.413Z,3.38
2022-10-05T13:37:46.921Z,3.70
2022-10-05T13:40:33.029Z,1.88
2022-10-05T13:43:22.905Z,0.80
2022-10-05T13:45:56.705Z,1.58
2022-10-05T13:48:42.482Z,2.20
2022-10-05T13:51:15.823Z,1.33
2022-10-05T13:53:48.874Z,2.78
2022-10-05T13:56:41.325Z,1.05
2022-10-05T13:59:11.836Z,1.25
2022-10-05T14:01:50.027Z,1.67
2022-10-05T14:04:18.054Z,1.58
2022-10-05T14:06:44.988Z,2.33
2022-10-05T14:09:27.591Z,1.63
2022-10-05T14:12:02.714Z,1.10
2022-10-05T14:14:31.548Z,1.20
2022-10-05T14:16:59.173Z,1.60
2022-10-05T14:19:54.945Z,1.52
2022-10-05T14:22:22.405Z,1.60
2022-10-05T14:24:55.095Z,3.03
2022-10-05T14:27:26.152Z,4.15
2022-10-05T14:29:55.676Z,4.03
2022-10-05T14:32:23.031Z,4.68
2022-10-05T14:34:58.973Z,3.42
2022-10-05T14:37:31.312Z,4.00
2022-10-05T14:40:03.404Z,3.53
2022-10-05T14:42:44.927Z,4.25
2022-10-05T14:45:14.637Z,4.38
2022-10-05T14:48:00.158Z,5.80
2022-10-05T14:50:29.945Z,5.70
2022-10-05T14:53:03.536Z,5.20
2022-10-05T14:55:37.253Z,4.80
2022-10-05T14:58:26.565Z,5.30
2022-10-05T15:00:56.976Z,5.15
2022-10-05T15:03:31.276Z,4.45
2022-10-05T15:06:02.203Z,4.45
2022-10-05T15:08:45.191Z,4.53
2022-10-05T15:11:24.025Z,4.32
2022-10-05T15:13:50.364Z,5.80
2022-10-05T15:16:22.875Z,5.47
2022-10-05T15:18:49.230Z,4.25
2022-10-05T15:21:15.501Z,5.47
2022-10-05T15:23:47.982Z,6.13
2022-10-05T15:26:14.576Z,4.40
2022-10-05T15:28:41.049Z,3.85
2022-10-05T15:31:21.278Z,4.20
2022-10-05T15:33:50.633Z,6.18
2022-10-05T15:36:19.833Z,6.82
2022-10-05T15:39:06.197Z,5.30
2022-10-05T15:41:36.775Z,4.20
2022-10-05T15:44:07.241Z,5.18
2022-10-05T15:46:36.361Z,4.70
2022-10-05T15:49:08.291Z,4.47
2022-10-05T15:52:04.163Z,5.88
2022-10-05T15:54:49.864Z,3.17
2022-10-05T15:57:33.877Z,5.60
2022-10-05T16:00:04.169Z,3.80
2022-10-05T16:02:41.196Z,4.40
2022-10-05T16:05:44.820Z,3.22
2022-10-05T16:08:34.202Z,4.82
2022-10-05T16:11:01.112Z,3.80
2022-10-05T16:13:49.671Z,4.47
2022-10-05T16:16:32.727Z,3.00
2022-10-05T16:19:06.942Z,3.28
2022-10-05T16:21:33.396Z,3.63
2022-10-05T16:24:18.256Z,5.05
2022-10-05T16:26:44.632Z,4.97
2022-10-05T16:29:24.730Z,3.17
2022-10-05T16:31:54.538Z,4.68
2022-10-05T16:34:26.453Z,3.85
2022-10-05T16:37:05.290Z,2.95
2022-10-05T16:39:40.736Z,3.13
2022-10-05T16:42:13.121Z,3.63
2022-10-05T16:45:06.809Z,4.13
2022-10-05T16:47:39.765Z,4.40
2022-10-05T16:50:09.097Z,4.20
2022-10-05T16:52:38.450Z,3.97
2022-10-05T16:55:11.257Z,4.43
2022-10-05T16:57:46.372Z,3.70
2022-10-05T17:00:26.953Z,4.55
2022-10-05T17:02:56.128Z,4.75
2022-10-05T17:05:31.136Z,4.30
2022-10-05T17:07:57.398Z,6.85
2022-10-05T17:10:41.688Z,3.85
2022-10-05T17:13:07.952Z,4.05
2022-10-05T17:15:55.004Z,4.10
2022-10-05T17:18:23.412Z,3.40
2022-10-05T17:21:07.833Z,3.97
2022-10-05T17:23:34.105Z,3.30
2022-10-05T17:26:19.229Z,3.38
2022-10-05T17:28:51.656Z,4.95
2022-10-05T17:31:20.390Z,4.95
2022-10-05T17:33:58.996Z,4.90
2022-10-05T17:36:42.958Z,6.22
2022-10-05T17:39:19.959Z,5.75
2022-10-05T17:41:46.829Z,5.25
2022-10-05T17:44:24.277Z,4.13
2022-10-05T17:46:51.715Z,5.10
2022-10-05T17:49:36.898Z,3.85
2022-10-05T17:52:46.300Z,2.75
2022-10-05T17:55:26.363Z,2.92
2022-10-05T17:57:53.326Z,1.88
2022-10-05T18:00:25.383Z,2.47
2022-10-05T18:02:55.822Z,2.92
2022-10-05T18:05:22.161Z,3.35
2022-10-05T18:08:08.508Z,4.45
2022-10-05T18:10:39.006Z,4.43
2022-10-05T18:13:19.702Z,3.08
2022-10-05T18:15:48.572Z,3.72
2022-10-05T18:18:33.729Z,3.20
2022-10-05T18:21:15.242Z,4.25
2022-10-05T18:23:50.082Z,3.10
2022-10-05T18:26:20.398Z,2.70
2022-10-05T18:29:13.670Z,3.67
2022-10-05T18:31:46.955Z,2.78
2022-10-05T18:34:21.923Z,3.05
2022-10-05T18:36:57.187Z,2.17
2022-10-05T18:39:23.472Z,2.17
2022-10-05T18:42:08.301Z,1.85
2022-10-05T18:44:39.499Z,1.77
2022-10-05T18:47:14.787Z,0.93
2022-10-05T18:49:58.500Z,1.17
2022-10-05T18:52:36.785Z,0.80
2022-10-05T18:55:32.738Z,0.65
2022-10-05T18:57:59.114Z,0.50
2022-10-05T19:00:31.700Z,0.30
2022-10-05T19:03:14.152Z,0.52
2022-10-05T19:05:48.346Z,0.52
2022-10-05T19:08:18.287Z,0.40
2022-10-05T19:10:55.276Z,0.20
2022-10-05T19:13:41.518Z,0.30
2022-10-05T19:16:20.214Z,0.30
2022-10-05T19:19:00.316Z,0.65
2022-10-05T19:21:39.362Z,0.40
2022-10-05T19:24:08.572Z,0.40
2022-10-05T19:26:34.851Z,0.30
2022-10-05T19:29:10.143Z,0.20
2022-10-05T19:31:36.429Z,0.30
2022-10-05T19:34:16.852Z,0.80
2022-10-05T19:36:58.589Z,1.65
2022-10-05T19:40:01.124Z,1.73
2022-10-05T19:42:31.709Z,1.35
2022-10-05T19:45:02.605Z,1.33
2022-10-05T19:47:47.849Z,2.22
2022-10-05T19:50:20.081Z,2.35
2022-10-05T19:52:50.266Z,1.55
2022-10-05T19:55:24.367Z,1.73
2022-10-05T19:57:51.791Z,2.20
2022-10-05T20:00:20.185Z,1.60
2022-10-05T20:02:46.854Z,2.88
2022-10-05T20:05:13.597Z,2.00
2022-10-05T20:07:39.886Z,1.52
2022-10-05T20:10:18.613Z,3.60
2022-10-05T20:12:50.483Z,2.38
2022-10-05T20:18:40.509Z,1.42
2022-10-05T20:21:06.804Z,1.67
2022-10-05T20:23:33.165Z,1.50
2022-10-05T20:26:18.087Z,1.48
2022-10-05T20:28:45.468Z,1.95
2022-10-05T20:31:12.446Z,1.40
2022-10-05T20:33:40.255Z,3.55
2022-10-05T20:36:08.586Z,1.92
2022-10-05T20:38:40.641Z,1.60
2022-10-05T20:41:07.564Z,3.45
2022-10-05T20:43:33.905Z,2.72
2022-10-05T20:46:00.194Z,1.60
2022-10-05T20:48:26.908Z,5.93
2022-10-05T20:50:54.060Z,5.50
2022-10-05T20:53:20.338Z,3.85
2022-10-05T20:55:46.746Z,5.43
2022-10-05T20:58:13.039Z,2.78
2022-10-05T21:00:58.453Z,3.85
2022-10-05T21:03:25.011Z,2.38
2022-10-05T21:05:51.296Z,1.85
2022-10-05T21:08:17.907Z,2.85
2022-10-05T21:10:44.186Z,2.33
2022-10-05T21:13:10.464Z,3.05
2022-10-05T21:15:36.947Z,2.20
2022-10-05T21:18:03.386Z,2.33
2022-10-05T21:20:29.705Z,1.70
2022-10-05T21:22:56.149Z,2.90
2022-10-05T21:25:22.514Z,2.47
2022-10-05T21:27:50.053Z,2.35
2022-10-05T21:30:16.470Z,2.83
2022-10-05T21:32:44.598Z,2.17
2022-10-05T21:35:11.127Z,2.38
2022-10-05T21:37:37.599Z,2.80
2022-10-05T21:40:04.161Z,2.90
2022-10-05T21:42:30.445Z,2.50
2022-10-05T21:44:56.852Z,2.88
2022-10-05T21:47:23.148Z,2.00
2022-10-05T21:49:49.518Z,3.25
2022-10-05T21:52:15.993Z,2.33
2022-10-05T21:54:42.415Z,1.90
2022-10-05T21:57:11.489Z,3.60
2022-10-05T21:59:37.907Z,2.63
2022-10-05T22:02:04.498Z,3.70
2022-10-05T22:04:30.777Z,2.63
2022-10-05T22:06:57.252Z,1.73
2022-10-05T22:09:23.594Z,5.28
2022-10-05T22:11:49.884Z,5.18
2022-10-05T22:14:16.402Z,2.90
2022-10-05T22:16:43.990Z,4.63
2022-10-05T22:19:15.866Z,3.22
2022-10-05T22:21:42.180Z,1.70
2022-10-05T22:24:08.935Z,2.85
2022-10-05T22:26:35.222Z,2.10
2022-10-05T22:29:02.384Z,1.70
2022-10-05T22:31:28.736Z,2.22
2022-10-05T22:33:55.102Z,1.55
2022-10-05T22:36:21.761Z,2.40
2022-10-05T22:38:48.092Z,3.03
2022-10-05T22:41:14.908Z,2.75
2022-10-05T22:43:41.282Z,2.92
2022-10-05T22:46:09.169Z,3.85
2022-10-05T22:48:35.540Z,2.42
2022-10-05T22:51:01.956Z,5.13
2022-10-05T22:53:28.239Z,1.50
2022-10-05T22:55:54.546Z,2.17
2022-10-05T22:58:20.974Z,2.40
2022-10-05T23:00:57.963Z,2.03
2022-10-05T23:03:25.267Z,3.10
2022-10-05T23:06:03.452Z,5.10
2022-10-05T23:08:33.325Z,2.38
2022-10-05T23:11:00.350Z,2.28
2022-10-05T23:13:26.770Z,2.03
2022-10-05T23:15:53.172Z,1.83
2022-10-05T23:18:19.447Z,3.03
2022-10-05T23:20:52.092Z,2.17
2022-10-05T23:23:19.136Z,2.78
2022-10-05T23:25:45.468Z,2.13
2022-10-05T23:28:11.780Z,4.30
2022-10-05T23:30:38.213Z,2.03
2022-10-05T23:33:04.509Z,1.95
2022-10-05T23:35:30.782Z,3.65
2022-10-05T23:37:57.068Z,2.35
2022-10-05T23:40:23.445Z,2.67
2022-10-05T23:42:49.735Z,2.53
2022-10-05T23:45:16.109Z,3.15
2022-10-05T23:47:42.634Z,2.05
2022-10-05T23:50:09.339Z,1.30
2022-10-05T23:52:36.556Z,1.77
2022-10-05T23:55:04.052Z,3.50
2022-10-05T23:57:30.918Z,2.97
2022-10-05T23:59:57.317Z,2.00
